Time;durP1;ratioP1;P1;durP2;ratioP2;P2;SDS_P1;SDS_P2;PMS_P1;PMS_P2;Temp;Humidity;BMP_temperature;BMP_pressure;BME280_temperature;BME280_humidity;BME280_pressure;Samples;Min_cycle;Max_cycle;Signal;HPM_P1;HPM_P2
2022/06/29 00:00:20;;;;;;;15.90;10.18;;;17.40;99.90;;;;;;4945082;28;20039;-64
2022/06/29 00:02:46;;;;;;;14.02;9.73;;;17.30;99.90;;;;;;4949827;28;20047;-63
2022/06/29 00:05:14;;;;;;;14.93;10.15;;;17.30;99.90;;;;;;4946849;28;20027;-64
2022/06/29 00:07:41;;;;;;;14.82;9.45;;;17.30;99.90;;;;;;4948547;28;20027;-62
2022/06/29 00:10:09;;;;;;;15.18;10.02;;;17.30;99.90;;;;;;4945980;28;20027;-63
2022/06/29 00:12:34;;;;;;;14.52;9.93;;;17.20;99.90;;;;;;4950641;28;20031;-62
2022/06/29 00:15:03;;;;;;;14.38;9.40;;;17.20;99.90;;;;;;4947351;28;20035;-63
2022/06/29 00:17:31;;;;;;;14.52;10.50;;;17.20;99.90;;;;;;4944343;28;20030;-63
2022/06/29 00:19:58;;;;;;;15.10;9.68;;;17.10;99.90;;;;;;4935987;28;20024;-63
2022/06/29 00:22:24;;;;;;;14.68;9.95;;;17.10;99.90;;;;;;4954525;28;20126;-62
2022/06/29 00:24:50;;;;;;;13.98;9.93;;;17.00;99.90;;;;;;4947834;28;20142;-63
2022/06/29 00:27:16;;;;;;;12.80;8.70;;;16.90;99.90;;;;;;4937322;28;20467;-64
2022/06/29 00:29:42;;;;;;;15.43;9.07;;;16.90;99.90;;;;;;4948416;28;20036;-63
2022/06/29 00:32:08;;;;;;;13.80;9.02;;;16.90;99.90;;;;;;4971021;28;20049;-63
2022/06/29 00:34:33;;;;;;;11.02;8.70;;;16.90;99.90;;;;;;4987194;28;20165;-63
2022/06/29 00:37:00;;;;;;;11.48;8.32;;;16.90;99.90;;;;;;4948177;28;20113;-63
2022/06/29 00:39:26;;;;;;;13.25;9.40;;;17.00;99.90;;;;;;4950218;28;20089;-63
2022/06/29 00:41:52;;;;;;;13.88;9.07;;;16.90;99.90;;;;;;4942582;28;20402;-63
2022/06/29 00:44:19;;;;;;;15.27;8.85;;;16.80;99.90;;;;;;4946031;28;20027;-63
2022/06/29 00:46:50;;;;;;;11.13;8.35;;;16.80;99.90;;;;;;4948106;28;20027;-64
2022/06/29 00:49:18;;;;;;;14.38;9.27;;;16.80;99.90;;;;;;4938707;28;20047;-64
2022/06/29 00:51:48;;;;;;;13.18;9.07;;;16.70;99.90;;;;;;4940298;28;20043;-64
2022/06/29 00:54:25;;;;;;;16.83;8.95;;;16.70;99.90;;;;;;5003721;28;20067;-64
2022/06/29 00:56:51;;;;;;;13.70;9.13;;;16.80;99.90;;;;;;5028609;28;20067;-64
2022/06/29 00:59:24;;;;;;;13.63;9.13;;;16.80;99.90;;;;;;4944379;28;20043;-64
2022/06/29 01:01:50;;;;;;;14.20;8.93;;;16.70;99.90;;;;;;4938705;28;20055;-62
2022/06/29 01:04:15;;;;;;;15.93;9.48;;;16.60;99.90;;;;;;4947582;28;20039;-64
2022/06/29 01:06:41;;;;;;;17.70;9.95;;;16.60;99.90;;;;;;4944161;28;20047;-63
2022/06/29 01:09:07;;;;;;;14.35;9.57;;;16.60;99.90;;;;;;4947583;28;20122;-63
2022/06/29 01:11:33;;;;;;;14.85;9.82;;;16.50;99.90;;;;;;4949182;28;20027;-62
2022/06/29 01:14:00;;;;;;;14.20;9.73;;;16.40;99.90;;;;;;5041899;28;20033;-62
2022/06/29 01:16:26;;;;;;;17.42;9.65;;;16.40;99.90;;;;;;4950369;28;20105;-63
2022/06/29 01:18:52;;;;;;;16.02;9.27;;;16.40;99.90;;;;;;4948208;28;20054;-63
2022/06/29 01:21:20;;;;;;;14.68;10.43;;;16.50;99.90;;;;;;4947841;28;20031;-64
2022/06/29 01:23:45;;;;;;;17.55;9.68;;;16.50;99.90;;;;;;5026941;28;20064;-63
2022/06/29 01:26:11;;;;;;;13.38;10.07;;;16.60;99.90;;;;;;4976851;28;20067;-63
2022/06/29 01:28:47;;;;;;;13.27;9.27;;;16.60;99.90;;;;;;5009485;28;20646;-63
2022/06/29 01:31:17;;;;;;;11.15;8.73;;;16.60;99.90;;;;;;4928710;28;20028;-62
2022/06/29 01:33:45;;;;;;;13.27;8.98;;;16.60;99.90;;;;;;4993801;28;20039;-63
2022/06/29 01:36:12;;;;;;;12.25;9.32;;;16.60;99.90;;;;;;4941897;28;20151;-63
2022/06/29 01:38:38;;;;;;;17.40;11.05;;;16.60;99.90;;;;;;4945471;28;20111;-63
2022/06/29 01:41:06;;;;;;;15.85;10.48;;;16.50;99.90;;;;;;4947352;28;20043;-63
2022/06/29 01:43:32;;;;;;;13.38;8.68;;;16.60;99.90;;;;;;4945864;28;20029;-63
2022/06/29 01:45:58;;;;;;;16.67;9.23;;;16.50;99.90;;;;;;4940299;28;20059;-63
2022/06/29 01:54:05;;;;;;;14.18;9.05;;;16.20;99.90;;;;;;5280859;22;20093;-63
2022/06/29 01:56:31;;;;;;;14.75;9.30;;;16.20;99.90;;;;;;5006786;28;20042;-63
2022/06/29 01:58:56;;;;;;;14.68;9.52;;;16.20;99.90;;;;;;5009530;28;20455;-63
2022/06/29 02:01:22;;;;;;;17.20;9.82;;;16.00;99.90;;;;;;5009079;28;20048;-63
2022/06/29 02:03:48;;;;;;;15.05;10.10;;;16.00;99.90;;;;;;5009533;28;20030;-63
2022/06/29 02:06:14;;;;;;;15.95;10.80;;;15.90;99.90;;;;;;5015401;28;20068;-63
2022/06/29 02:08:40;;;;;;;17.02;10.35;;;15.90;99.90;;;;;;5023904;28;20049;-63
2022/06/29 02:11:06;;;;;;;19.75;11.07;;;16.00;99.90;;;;;;5012242;28;20083;-63
2022/06/29 02:13:31;;;;;;;14.13;9.93;;;16.00;99.90;;;;;;5006992;28;20474;-64
2022/06/29 02:15:57;;;;;;;15.70;9.57;;;15.90;99.90;;;;;;5014113;28;20064;-63
2022/06/29 02:18:23;;;;;;;14.90;10.00;;;15.90;99.90;;;;;;5018321;28;20076;-64
2022/06/29 02:20:48;;;;;;;17.45;10.57;;;15.80;99.90;;;;;;5024957;28;20040;-63
2022/06/29 02:23:14;;;;;;;14.20;9.90;;;15.70;99.90;;;;;;5000048;28;20034;-63
2022/06/29 02:25:40;;;;;;;15.73;10.05;;;15.70;99.90;;;;;;5000728;28;20041;-64
2022/06/29 02:28:06;;;;;;;15.82;10.15;;;15.80;99.90;;;;;;5005653;28;20057;-63
2022/06/29 02:36:12;;;;;;;19.65;10.95;;;15.70;99.90;;;;;;5011077;28;20032;-63
2022/06/29 02:38:37;;;;;;;20.20;11.60;;;15.60;99.90;;;;;;5014240;28;20029;-64
2022/06/29 02:41:03;;;;;;;16.67;10.68;;;15.60;99.90;;;;;;5031069;28;20033;-63
2022/06/29 02:43:29;;;;;;;17.73;10.80;;;15.50;99.90;;;;;;5014830;28;20499;-63
2022/06/29 02:45:55;;;;;;;18.05;10.40;;;15.50;99.90;;;;;;5010493;28;20480;-64
2022/06/29 02:48:20;;;;;;;19.40;11.27;;;15.60;99.90;;;;;;5008342;28;20034;-63
2022/06/29 02:50:46;;;;;;;14.75;10.10;;;15.50;99.90;;;;;;5008589;28;20108;-63
2022/06/29 02:53:11;;;;;;;20.55;11.25;;;15.50;99.90;;;;;;5010419;28;20049;-63
2022/06/29 02:55:37;;;;;;;16.08;10.82;;;15.50;99.90;;;;;;5011786;28;20108;-63
2022/06/29 02:58:03;;;;;;;20.00;10.52;;;15.50;99.90;;;;;;5009849;28;20441;-63
2022/06/29 03:00:28;;;;;;;22.77;13.55;;;15.50;99.90;;;;;;5006181;28;20029;-63
2022/06/29 03:02:54;;;;;;;21.48;13.48;;;15.40;99.90;;;;;;5010354;28;20133;-63
2022/06/29 03:05:20;;;;;;;22.40;13.07;;;15.40;99.90;;;;;;5013630;28;20040;-62
2022/06/29 03:07:46;;;;;;;22.63;13.75;;;15.40;99.90;;;;;;5015821;28;20454;-62
2022/06/29 03:10:11;;;;;;;24.10;14.18;;;15.50;99.90;;;;;;5010074;28;20517;-62
2022/06/29 03:12:37;;;;;;;22.67;13.70;;;15.50;99.90;;;;;;5020233;28;20025;-63
2022/06/29 03:15:03;;;;;;;20.85;13.77;;;15.50;99.90;;;;;;5027003;28;20481;-63
2022/06/29 03:17:29;;;;;;;20.70;13.15;;;15.50;99.90;;;;;;5025447;28;20422;-63
2022/06/29 03:19:54;;;;;;;21.73;13.82;;;15.50;99.90;;;;;;5011614;28;20208;-63
2022/06/29 03:22:20;;;;;;;21.73;13.98;;;15.60;99.90;;;;;;5009528;28;20056;-63
2022/06/29 03:24:46;;;;;;;22.08;14.20;;;15.50;99.90;;;;;;5010167;28;20367;-63
2022/06/29 03:27:11;;;;;;;19.70;12.70;;;15.50;99.90;;;;;;5001272;28;20455;-63
2022/06/29 03:29:37;;;;;;;22.13;12.73;;;15.50;99.90;;;;;;5003991;28;20084;-62
2022/06/29 03:32:03;;;;;;;20.90;12.60;;;15.40;99.90;;;;;;5012134;28;20046;-62
2022/06/29 03:34:29;;;;;;;22.50;11.85;;;15.40;99.90;;;;;;5030533;28;20029;-62
2022/06/29 03:36:54;;;;;;;18.95;11.88;;;15.30;99.90;;;;;;5020789;28;20040;-63
2022/06/29 03:39:20;;;;;;;21.75;11.90;;;15.30;99.90;;;;;;5010765;28;20034;-63
2022/06/29 03:41:46;;;;;;;19.98;12.20;;;15.20;99.90;;;;;;5011005;28;20401;-63
2022/06/29 03:44:11;;;;;;;15.93;10.80;;;15.30;99.90;;;;;;5010590;28;20120;-63
2022/06/29 03:46:37;;;;;;;20.77;11.65;;;15.30;99.90;;;;;;5021441;28;20438;-63
2022/06/29 03:49:03;;;;;;;16.75;11.55;;;15.30;99.90;;;;;;5020515;28;20413;-63
2022/06/29 03:51:28;;;;;;;17.25;11.05;;;15.30;99.90;;;;;;5022256;28;20026;-63
2022/06/29 03:53:54;;;;;;;17.60;11.77;;;15.40;99.90;;;;;;5023735;28;20057;-63
2022/06/29 03:56:21;;;;;;;19.55;12.77;;;15.20;99.90;;;;;;5021819;28;20125;-63
2022/06/29 03:58:47;;;;;;;17.75;12.00;;;15.20;99.90;;;;;;5009029;28;20030;-64
2022/06/29 04:01:12;;;;;;;20.77;12.95;;;15.20;99.90;;;;;;5001580;28;20036;-63
2022/06/29 04:03:38;;;;;;;24.15;12.40;;;15.20;99.90;;;;;;5010352;28;20101;-62
2022/06/29 04:06:04;;;;;;;17.83;11.10;;;15.20;99.90;;;;;;5009253;28;20537;-62
2022/06/29 04:08:29;;;;;;;18.15;11.02;;;15.20;99.90;;;;;;5009518;28;20033;-62
2022/06/29 04:10:55;;;;;;;17.15;11.27;;;15.30;99.90;;;;;;5009133;28;20042;-62
2022/06/29 04:13:22;;;;;;;20.40;12.68;;;15.30;99.90;;;;;;5009678;28;20038;-63
2022/06/29 04:15:49;;;;;;;22.67;12.10;;;15.40;99.90;;;;;;5009065;28;20026;-63
2022/06/29 04:18:14;;;;;;;18.25;12.35;;;15.40;99.90;;;;;;5021042;28;20088;-63
2022/06/29 04:23:24;;;;;;;24.10;12.48;;;15.50;99.90;;;;;;5020517;28;20052;-62
2022/06/29 04:25:50;;;;;;;22.15;13.48;;;15.50;99.90;;;;;;5007971;28;20474;-63
2022/06/29 04:28:16;;;;;;;20.58;12.65;;;15.50;99.90;;;;;;5009726;28;20462;-62
2022/06/29 04:30:41;;;;;;;24.88;13.38;;;15.50;99.90;;;;;;5009393;28;20030;-63
2022/06/29 04:33:07;;;;;;;21.45;13.02;;;15.50;99.90;;;;;;5008981;28;20030;-62
2022/06/29 04:35:34;;;;;;;20.15;11.05;;;15.60;99.90;;;;;;5009011;28;20038;-62
2022/06/29 04:38:00;;;;;;;19.92;11.10;;;15.60;99.90;;;;;;5008853;28;20029;-63
2022/06/29 04:40:26;;;;;;;19.08;10.13;;;15.60;99.90;;;;;;5009640;28;20034;-62
2022/06/29 04:42:52;;;;;;;13.90;9.80;;;15.70;99.90;;;;;;5008890;28;20088;-63
2022/06/29 04:48:02;;;;;;;20.38;9.85;;;16.00;99.90;;;;;;5007730;28;20036;-63
2022/06/29 04:50:29;;;;;;;13.23;9.55;;;16.10;99.90;;;;;;5017635;28;20042;-63
2022/06/29 04:52:54;;;;;;;15.95;9.27;;;16.10;99.90;;;;;;5008218;28;20066;-62
2022/06/29 04:55:22;;;;;;;13.98;9.60;;;16.00;99.90;;;;;;5008974;28;20484;-62
2022/06/29 04:57:47;;;;;;;16.38;9.80;;;16.00;99.90;;;;;;5023874;28;20454;-64
2022/06/29 05:00:13;;;;;;;16.80;9.85;;;16.20;99.90;;;;;;5012990;28;20036;-62
2022/06/29 05:02:39;;;;;;;20.05;10.07;;;16.30;99.90;;;;;;5025579;28;20132;-62
2022/06/29 05:05:05;;;;;;;15.65;8.88;;;16.30;99.90;;;;;;5016685;28;20026;-62
2022/06/29 05:07:30;;;;;;;18.30;11.85;;;16.50;99.90;;;;;;5016924;28;20679;-62
2022/06/29 05:09:56;;;;;;;19.95;12.00;;;16.70;99.90;;;;;;5015457;28;20029;-62
2022/06/29 05:12:22;;;;;;;15.43;10.93;;;16.80;99.90;;;;;;5014987;28;20037;-62
2022/06/29 05:14:47;;;;;;;19.98;13.00;;;16.90;99.90;;;;;;5019507;28;20064;-64
2022/06/29 05:17:13;;;;;;;18.52;10.80;;;17.10;99.90;;;;;;5006657;28;20491;-63
2022/06/29 05:19:39;;;;;;;15.27;10.98;;;17.20;99.90;;;;;;5008115;28;20030;-63
2022/06/29 05:22:04;;;;;;;18.55;12.00;;;17.30;99.90;;;;;;5006787;28;20104;-63
2022/06/29 05:24:31;;;;;;;17.95;11.48;;;17.30;99.90;;;;;;5009201;28;20064;-63
2022/06/29 05:26:56;;;;;;;17.75;12.15;;;17.40;99.90;;;;;;5007983;28;20021;-63
2022/06/29 05:29:24;;;;;;;16.83;11.95;;;17.40;99.90;;;;;;5008841;28;20519;-63
2022/06/29 05:31:49;;;;;;;21.58;12.20;;;17.20;99.90;;;;;;5005469;28;20091;-64
2022/06/29 05:34:15;;;;;;;19.50;12.00;;;17.10;99.90;;;;;;5005384;28;20030;-63
2022/06/29 05:36:41;;;;;;;24.85;14.52;;;17.10;99.90;;;;;;5008948;28;20069;-63
2022/06/29 05:39:07;;;;;;;20.70;14.55;;;17.20;99.90;;;;;;5007855;28;20335;-63
2022/06/29 05:41:33;;;;;;;25.77;16.27;;;17.20;99.90;;;;;;5006938;28;20033;-63
2022/06/29 05:43:58;;;;;;;25.85;16.73;;;17.30;99.90;;;;;;5007874;28;20022;-64
2022/06/29 05:46:24;;;;;;;28.77;16.98;;;17.40;99.90;;;;;;5007599;28;20041;-63
2022/06/29 05:48:50;;;;;;;23.70;14.52;;;17.50;99.90;;;;;;5008088;28;20103;-64
2022/06/29 05:51:15;;;;;;;23.15;14.65;;;17.50;99.90;;;;;;5008575;28;20038;-63
2022/06/29 05:53:41;;;;;;;23.20;14.15;;;17.50;99.90;;;;;;5008171;28;20077;-63
2022/06/29 05:56:07;;;;;;;23.63;14.73;;;17.50;99.90;;;;;;5006196;28;20049;-63
2022/06/29 05:58:32;;;;;;;23.38;14.82;;;17.70;99.90;;;;;;5008491;28;20030;-63
2022/06/29 06:00:58;;;;;;;20.75;14.63;;;17.70;99.90;;;;;;5007683;28;20554;-63
2022/06/29 06:03:24;;;;;;;23.23;14.82;;;17.70;99.90;;;;;;5008631;28;20148;-63
2022/06/29 06:05:49;;;;;;;21.88;13.77;;;17.80;99.90;;;;;;5007389;28;20034;-64
2022/06/29 06:08:17;;;;;;;21.90;14.05;;;17.80;99.90;;;;;;5008471;28;20429;-63
2022/06/29 06:10:43;;;;;;;30.85;14.55;;;17.80;99.90;;;;;;5009177;28;20119;-63
2022/06/29 06:13:09;;;;;;;22.65;14.35;;;17.80;99.90;;;;;;5011413;28;20045;-63
2022/06/29 06:15:35;;;;;;;22.40;15.45;;;17.80;99.90;;;;;;5009105;28;20425;-63
2022/06/29 06:18:01;;;;;;;25.30;15.93;;;17.90;99.90;;;;;;5008509;28;20061;-63
2022/06/29 06:20:28;;;;;;;23.98;14.95;;;17.90;99.90;;;;;;5012071;28;20029;-63
2022/06/29 06:22:55;;;;;;;22.20;14.02;;;18.00;99.90;;;;;;5010526;28;20645;-62
2022/06/29 06:25:21;;;;;;;20.65;14.25;;;18.10;99.90;;;;;;5024252;28;20111;-63
2022/06/29 06:27:46;;;;;;;21.48;14.68;;;18.10;99.90;;;;;;5021303;28;20394;-62
2022/06/29 06:30:12;;;;;;;25.45;14.75;;;18.20;99.90;;;;;;5011090;28;20026;-63
2022/06/29 06:32:38;;;;;;;25.15;14.43;;;18.20;99.90;;;;;;5011490;28;20109;-63
2022/06/29 06:35:05;;;;;;;22.35;14.25;;;18.30;99.90;;;;;;5011190;28;20030;-62
2022/06/29 06:37:31;;;;;;;23.73;14.88;;;18.30;99.90;;;;;;5024528;28;20120;-63
2022/06/29 06:42:41;;;;;;;25.50;14.60;;;18.30;99.90;;;;;;5026174;28;20141;-64
2022/06/29 06:45:07;;;;;;;25.60;14.40;;;18.40;99.90;;;;;;5010965;28;20113;-63
2022/06/29 06:47:33;;;;;;;21.27;15.13;;;18.40;99.90;;;;;;5011753;28;20044;-63
2022/06/29 06:49:58;;;;;;;21.20;13.30;;;18.40;99.90;;;;;;5011013;28;20030;-62
2022/06/29 06:52:24;;;;;;;23.27;15.23;;;18.60;99.90;;;;;;5010843;28;20045;-62
2022/06/29 06:54:50;;;;;;;21.60;15.15;;;18.60;99.90;;;;;;5011553;28;20072;-62
2022/06/29 06:57:15;;;;;;;20.75;13.80;;;18.70;99.90;;;;;;5010814;28;20037;-61
2022/06/29 06:59:41;;;;;;;27.10;15.50;;;18.70;99.90;;;;;;5010150;28;20489;-62
2022/06/29 07:02:07;;;;;;;20.65;13.45;;;18.80;99.90;;;;;;5012847;28;20408;-62
2022/06/29 07:04:32;;;;;;;22.13;13.13;;;18.90;99.90;;;;;;5007236;28;20033;-62
2022/06/29 07:06:58;;;;;;;23.38;14.88;;;19.00;99.90;;;;;;5010764;28;20105;-62
2022/06/29 07:09:24;;;;;;;20.65;13.68;;;19.10;99.90;;;;;;5011375;28;20099;-62
2022/06/29 07:11:50;;;;;;;21.15;14.82;;;19.10;99.90;;;;;;5010687;28;20034;-62
2022/06/29 07:14:15;;;;;;;23.05;14.40;;;19.10;99.90;;;;;;5009719;28;20549;-62
2022/06/29 07:16:41;;;;;;;23.15;13.85;;;19.20;99.90;;;;;;5011311;28;20033;-62
2022/06/29 07:19:07;;;;;;;22.58;14.05;;;19.20;99.90;;;;;;5010544;28;20478;-62
2022/06/29 07:21:32;;;;;;;23.73;14.93;;;19.20;99.90;;;;;;5010894;28;20029;-62
2022/06/29 07:23:59;;;;;;;21.65;13.98;;;19.20;99.90;;;;;;5008527;28;20064;-63
2022/06/29 07:26:28;;;;;;;19.90;13.65;;;19.20;99.90;;;;;;5004901;28;20026;-62
2022/06/29 07:28:53;;;;;;;22.80;14.25;;;19.10;99.90;;;;;;4991291;28;20085;-63
2022/06/29 07:31:19;;;;;;;22.50;14.40;;;19.10;99.90;;;;;;4990495;28;20038;-62
2022/06/29 07:33:45;;;;;;;26.25;14.52;;;19.30;99.90;;;;;;5000186;28;20477;-62
2022/06/29 07:36:11;;;;;;;22.75;14.10;;;19.30;99.90;;;;;;5007393;28;20724;-62
2022/06/29 07:38:37;;;;;;;23.83;13.57;;;19.40;99.90;;;;;;5010888;28;20030;-62
2022/06/29 07:41:03;;;;;;;20.08;13.35;;;19.40;99.90;;;;;;5010169;28;20034;-62
2022/06/29 07:43:29;;;;;;;18.63;14.05;;;19.60;99.90;;;;;;5009345;28;20030;-62
2022/06/29 07:45:58;;;;;;;21.58;15.02;;;19.70;99.90;;;;;;5010370;28;20034;-63
2022/06/29 07:48:24;;;;;;;20.77;14.63;;;19.70;99.90;;;;;;5009569;28;20453;-62
2022/06/29 07:50:50;;;;;;;20.25;13.57;;;19.80;99.90;;;;;;4991200;28;20534;-62
2022/06/29 07:53:16;;;;;;;20.15;14.70;;;19.90;99.90;;;;;;4990100;28;20121;-62
2022/06/29 07:55:44;;;;;;;23.63;13.95;;;20.00;99.90;;;;;;4991113;28;20034;-62
2022/06/29 07:58:15;;;;;;;22.98;14.35;;;20.00;99.90;;;;;;4990257;28;20118;-62
2022/06/29 08:00:41;;;;;;;21.77;13.70;;;20.00;99.90;;;;;;5009123;28;20046;-62
2022/06/29 08:03:07;;;;;;;21.80;13.20;;;20.00;99.90;;;;;;5009735;28;20018;-62
2022/06/29 08:05:34;;;;;;;19.05;13.40;;;20.10;99.90;;;;;;5010370;28;20022;-62
2022/06/29 08:07:59;;;;;;;19.67;11.40;;;20.30;99.90;;;;;;5008034;28;20045;-63
2022/06/29 08:10:25;;;;;;;17.48;12.40;;;20.40;99.90;;;;;;5010278;28;20083;-62
2022/06/29 08:12:51;;;;;;;19.10;11.90;;;20.40;99.90;;;;;;5010263;28;20060;-62
2022/06/29 08:15:17;;;;;;;17.17;11.68;;;20.50;99.90;;;;;;5009882;28;20093;-62
2022/06/29 08:17:44;;;;;;;21.23;11.68;;;20.50;99.90;;;;;;5009570;28;20058;-62
2022/06/29 08:20:10;;;;;;;15.93;11.55;;;20.50;99.90;;;;;;5009039;28;20034;-62
2022/06/29 08:22:36;;;;;;;19.05;11.55;;;20.60;99.90;;;;;;5009928;28;20053;-62
2022/06/29 08:25:02;;;;;;;16.23;10.57;;;20.70;99.90;;;;;;5009146;28;20064;-62
2022/06/29 08:27:29;;;;;;;18.77;10.88;;;20.80;99.90;;;;;;5009080;28;20037;-63
2022/06/29 08:29:54;;;;;;;17.08;11.40;;;20.90;99.90;;;;;;5010015;28;20033;-63
2022/06/29 08:32:20;;;;;;;15.93;12.07;;;21.10;99.90;;;;;;5007736;28;20056;-63
2022/06/29 08:34:46;;;;;;;16.15;11.10;;;21.20;99.90;;;;;;5009528;28;20112;-62
2022/06/29 08:37:12;;;;;;;17.58;11.43;;;21.20;99.90;;;;;;5009067;28;20040;-63
2022/06/29 08:39:38;;;;;;;15.90;10.68;;;21.30;99.90;;;;;;5009936;28;20062;-62
2022/06/29 08:42:05;;;;;;;14.35;10.07;;;21.50;99.90;;;;;;5006099;28;20260;-63
2022/06/29 08:44:39;;;;;;;17.17;11.48;;;21.60;99.90;;;;;;5009385;28;20053;-62
2022/06/29 08:47:06;;;;;;;17.65;11.55;;;21.80;99.90;;;;;;5008868;28;20138;-62
2022/06/29 08:49:33;;;;;;;17.73;11.15;;;21.70;99.90;;;;;;5009472;28;20026;-62
2022/06/29 08:52:03;;;;;;;18.15;11.23;;;21.70;99.90;;;;;;5009049;28;20030;-64
2022/06/29 08:54:30;;;;;;;17.58;12.05;;;21.70;99.90;;;;;;5008281;28;20080;-62
2022/06/29 08:56:58;;;;;;;16.55;11.35;;;21.80;99.90;;;;;;5009358;28;20033;-63
2022/06/29 08:59:24;;;;;;;18.98;11.90;;;22.00;99.90;;;;;;5009028;28;20022;-62
2022/06/29 09:01:53;;;;;;;20.35;11.82;;;22.20;99.90;;;;;;5009184;28;20037;-63
2022/06/29 09:04:19;;;;;;;14.70;10.23;;;22.50;99.90;;;;;;5007428;28;20064;-63
2022/06/29 09:06:45;;;;;;;14.15;10.00;;;22.70;99.90;;;;;;5009458;28;20088;-63
2022/06/29 09:09:14;;;;;;;15.82;11.30;;;22.70;99.90;;;;;;5008604;28;20433;-63
2022/06/29 09:11:42;;;;;;;16.08;10.38;;;22.70;99.90;;;;;;5008765;28;20084;-62
2022/06/29 09:14:14;;;;;;;13.65;10.23;;;22.80;99.90;;;;;;5007556;28;20049;-63
2022/06/29 09:16:53;;;;;;;16.30;10.85;;;23.00;99.90;;;;;;5009026;28;20032;-63
2022/06/29 09:19:24;;;;;;;13.05;9.68;;;22.80;99.90;;;;;;5007563;28;20026;-63
2022/06/29 09:21:55;;;;;;;19.08;10.90;;;22.80;99.90;;;;;;5008954;28;20109;-63
2022/06/29 09:24:23;;;;;;;18.08;11.40;;;22.90;99.90;;;;;;5007427;28;20123;-63
2022/06/29 09:26:50;;;;;;;14.95;10.90;;;23.00;99.90;;;;;;5008994;28;20030;-62
2022/06/29 09:29:28;;;;;;;15.85;10.65;;;22.90;99.90;;;;;;5008186;28;20037;-63
2022/06/29 09:32:09;;;;;;;19.08;11.05;;;22.90;99.90;;;;;;5009061;28;20590;-62
2022/06/29 09:34:46;;;;;;;17.85;11.40;;;22.90;99.90;;;;;;5007898;28;20489;-63
2022/06/29 09:37:19;;;;;;;20.58;11.55;;;22.80;99.90;;;;;;5007209;28;21625;-62
2022/06/29 09:39:52;;;;;;;18.77;11.48;;;22.60;99.90;;;;;;5008891;28;20030;-62
2022/06/29 09:42:20;;;;;;;18.65;11.02;;;22.70;99.90;;;;;;5008130;28;20033;-62
2022/06/29 09:44:47;;;;;;;17.15;11.02;;;22.50;99.90;;;;;;5008711;28;20026;-62
2022/06/29 09:47:19;;;;;;;17.90;11.75;;;22.50;99.90;;;;;;5006567;28;20026;-62
2022/06/29 09:49:47;;;;;;;16.33;12.10;;;22.50;99.90;;;;;;5008551;28;20499;-62
2022/06/29 09:52:15;;;;;;;19.23;11.57;;;22.30;99.90;;;;;;5007801;28;20038;-61
2022/06/29 09:55:07;;;;;;;17.60;11.50;;;22.30;99.90;;;;;;5008592;28;20068;-62
2022/06/29 09:57:36;;;;;;;31.33;11.70;;;22.30;99.90;;;;;;5006225;28;20045;-62
2022/06/29 10:02:52;;;;;;;17.67;11.88;;;22.50;99.90;;;;;;5008649;28;20040;-62
2022/06/29 10:05:54;;;;;;;17.38;12.02;;;22.80;99.90;;;;;;5007670;28;20057;-62
2022/06/29 10:08:11;;;;;;;21.60;11.98;;;23.10;99.90;;;;;;5007647;28;20034;-62
2022/06/29 10:10:37;;;;;;;25.33;12.05;;;23.40;99.90;;;;;;5007323;28;20029;-62
2022/06/29 10:16:25;;;;;;;18.30;11.63;;;23.70;99.90;;;;;;5008056;28;20062;-62
2022/06/29 10:18:50;;;;;;;16.80;10.63;;;23.90;99.90;;;;;;5008407;28;20041;-63
2022/06/29 10:21:27;;;;;;;17.77;11.07;;;23.90;99.90;;;;;;5006854;28;20091;-62
2022/06/29 10:23:55;;;;;;;16.45;10.77;;;24.10;99.90;;;;;;5008357;28;20029;-64
2022/06/29 10:26:27;;;;;;;19.65;11.55;;;24.40;99.90;;;;;;5007602;28;20359;-62
2022/06/29 10:29:14;;;;;;;17.08;10.95;;;24.70;99.90;;;;;;5008323;28;20030;-63
2022/06/29 10:31:51;;;;;;;14.30;10.10;;;24.50;99.90;;;;;;4999981;28;20058;-62
2022/06/29 10:34:37;;;;;;;13.07;9.57;;;24.50;99.90;;;;;;5007255;28;20030;-62
2022/06/29 10:37:08;;;;;;;15.18;9.70;;;24.50;99.90;;;;;;5008315;28;20034;-63
2022/06/29 10:39:49;;;;;;;17.40;10.20;;;24.50;99.90;;;;;;5007444;28;20480;-62
2022/06/29 10:45:17;;;;;;;;;;;24.20;99.90;;;;;;5008322;28;20186;-65
2022/06/29 10:47:52;;;;;;;15.88;9.35;;;24.00;99.90;;;;;;5014452;28;19937;-62
2022/06/29 10:50:22;;;;;;;25.20;10.60;;;24.00;99.90;;;;;;5005957;28;20030;-62
2022/06/29 10:52:49;;;;;;;;;;;24.00;99.90;;;;;;5007177;28;20066;-62
2022/06/29 10:55:16;;;;;;;14.15;8.73;;;24.20;99.90;;;;;;5004023;28;19928;-62
2022/06/29 10:57:43;;;;;;;21.08;9.77;;;24.30;99.90;;;;;;5010196;28;20034;-62
2022/06/29 11:00:14;;;;;;;13.80;10.10;;;24.50;99.90;;;;;;5005548;28;20072;-62
2022/06/29 11:02:42;;;;;;;14.63;9.55;;;24.80;99.90;;;;;;5003458;28;20037;-63
2022/06/29 11:05:08;;;;;;;16.85;10.68;;;25.10;99.90;;;;;;5022335;28;20033;-65
2022/06/29 11:13:03;;;;;;;13.57;8.18;;;26.00;99.90;;;;;;5011179;28;20449;-62
2022/06/29 11:15:42;;;;;;;12.45;8.20;;;25.80;99.90;;;;;;5008781;28;20030;-63
2022/06/29 11:18:08;;;;;;;14.55;8.73;;;25.80;99.90;;;;;;4997973;28;20073;-64
2022/06/29 11:20:34;;;;;;;14.80;8.73;;;25.60;99.90;;;;;;5009371;28;20144;-62
2022/06/29 11:23:00;;;;;;;12.73;8.52;;;25.90;99.90;;;;;;5012046;28;20495;-62
2022/06/29 11:25:26;;;;;;;12.80;8.35;;;26.30;99.90;;;;;;5025673;28;20097;-62
2022/06/29 11:27:52;;;;;;;12.70;8.32;;;26.60;99.90;;;;;;5025475;28;20476;-61
2022/06/29 11:30:22;;;;;;;12.13;7.82;;;26.60;99.90;;;;;;5008570;28;20034;-62
2022/06/29 11:32:49;;;;;;;11.68;8.05;;;26.90;99.90;;;;;;5010767;28;20160;-62
2022/06/29 11:35:21;;;;;;;12.63;8.52;;;26.90;99.90;;;;;;5009241;28;20034;-62
2022/06/29 11:37:54;;;;;;;11.93;8.77;;;26.50;99.90;;;;;;5008724;28;20109;-62
2022/06/29 11:40:29;;;;;;;13.85;9.45;;;26.10;99.90;;;;;;5010017;28;20120;-62
2022/06/29 11:43:05;;;;;;;11.80;8.73;;;25.80;99.90;;;;;;5007770;28;20042;-62
2022/06/29 11:45:50;;;;;;;15.02;9.07;;;25.50;99.90;;;;;;5009885;28;20030;-63
2022/06/29 11:48:18;;;;;;;12.02;9.15;;;25.40;99.90;;;;;;5008841;28;20025;-63
2022/06/29 11:50:54;;;;;;;18.73;8.35;;;25.20;99.90;;;;;;5010636;28;20030;-63
2022/06/29 11:53:43;;;;;;;9.43;7.38;;;25.20;99.90;;;;;;5008801;28;20046;-63
2022/06/29 11:56:14;;;;;;;12.60;7.80;;;25.30;99.90;;;;;;5010344;28;20113;-64
2022/06/29 11:58:50;;;;;;;;;;;25.40;99.90;;;;;;5010130;28;20033;-63
2022/06/29 12:01:18;;;;;;;14.05;8.20;;;25.60;99.90;;;;;;5009781;28;19932;-63
2022/06/29 12:03:53;;;;;;;16.10;8.55;;;25.50;99.90;;;;;;5008962;28;20037;-63
2022/06/29 12:06:22;;;;;;;10.55;8.00;;;25.30;99.90;;;;;;5007982;28;20030;-63
2022/06/29 12:08:49;;;;;;;11.70;8.15;;;25.20;99.90;;;;;;5009526;28;20030;-63
2022/06/29 12:11:15;;;;;;;14.15;8.80;;;25.20;99.90;;;;;;5009523;28;20079;-63
2022/06/29 12:13:41;;;;;;;14.43;7.70;;;25.10;99.90;;;;;;5010215;28;20045;-62
2022/06/29 12:16:07;;;;;;;15.07;8.45;;;25.10;99.90;;;;;;5008965;28;20040;-63
2022/06/29 12:18:32;;;;;;;15.02;8.38;;;25.10;99.90;;;;;;5004267;28;20030;-63
2022/06/29 12:20:58;;;;;;;11.98;8.70;;;25.00;99.90;;;;;;5010032;28;20463;-63
2022/06/29 12:23:24;;;;;;;12.13;7.82;;;25.00;99.90;;;;;;5009409;28;20028;-62
2022/06/29 12:25:49;;;;;;;10.32;7.72;;;25.00;99.90;;;;;;5010099;28;20553;-62
2022/06/29 12:28:15;;;;;;;13.80;8.18;;;25.00;99.90;;;;;;5008483;28;20096;-63
2022/06/29 12:30:41;;;;;;;13.75;8.43;;;25.20;99.90;;;;;;5009356;28;20034;-63
2022/06/29 12:33:09;;;;;;;15.60;7.57;;;25.20;99.90;;;;;;5009712;28;20425;-63
2022/06/29 12:35:35;;;;;;;10.18;7.20;;;25.50;99.90;;;;;;5008445;28;20121;-63
2022/06/29 12:38:01;;;;;;;8.85;7.10;;;26.00;99.90;;;;;;5008564;28;20064;-63
2022/06/29 12:40:29;;;;;;;11.88;7.47;;;26.50;99.90;;;;;;5008570;28;20029;-63
2022/06/29 12:42:55;;;;;;;11.57;7.07;;;26.70;99.90;;;;;;5009528;28;20069;-63
2022/06/29 12:45:21;;;;;;;13.52;7.35;;;26.90;99.90;;;;;;5009225;28;20061;-63
2022/06/29 12:47:47;;;;;;;13.18;7.35;;;27.10;99.90;;;;;;5008859;28;20068;-64
2022/06/29 12:50:13;;;;;;;12.68;7.18;;;27.10;99.90;;;;;;5009290;28;20025;-64
2022/06/29 12:52:45;;;;;;;12.77;6.35;;;27.00;99.90;;;;;;5006557;28;20041;-63
2022/06/29 12:55:14;;;;;;;8.60;5.78;;;26.80;99.90;;;;;;5009248;28;20042;-64
2022/06/29 12:57:41;;;;;;;10.25;6.22;;;26.80;99.90;;;;;;5007706;28;20045;-63
2022/06/29 13:00:08;;;;;;;9.38;6.53;;;27.00;99.90;;;;;;5007527;28;20045;-64
2022/06/29 13:02:34;;;;;;;10.05;5.90;;;26.90;99.90;;;;;;5003818;28;20030;-63
2022/06/29 13:04:59;;;;;;;10.80;5.97;;;26.90;99.90;;;;;;5008769;28;20022;-63